Time;durP1;ratioP1;P1;durP2;ratioP2;P2;SDS_P1;SDS_P2;PMS_P1;PMS_P2;Temp;Humidity;BMP_temperature;BMP_pressure;BME280_temperature;BME280_humidity;BME280_pressure;Samples;Min_cycle;Max_cycle;Signal;HPM_P1;HPM_P2
2021/11/16 00:00:14;;;;;;;4.78;2.10;;;;;;;;;;6229619;23;20016;-71
2021/11/16 00:02:41;;;;;;;5.53;2.17;;;;;;;;;;6232293;23;19997;-71
2021/11/16 00:05:07;;;;;;;3.42;1.80;;;;;;;;;;6233946;23;20019;-71
2021/11/16 00:07:34;;;;;;;4.32;1.85;;;;;;;;;;6234306;23;20079;-71
2021/11/16 00:10:00;;;;;;;4.68;2.20;;;;;;;;;;6232682;23;20011;-71
2021/11/16 00:12:26;;;;;;;4.28;2.20;;;;;;;;;;6237079;23;20008;-71
2021/11/16 00:14:53;;;;;;;6.13;2.22;;;;;;;;;;6237366;23;20110;-71
2021/11/16 00:17:19;;;;;;;3.65;2.00;;;;;;;;;;6237740;23;20023;-76
2021/11/16 00:19:48;;;;;;;5.05;2.33;;;;;;;;;;6237843;23;20008;-76
2021/11/16 00:22:18;;;;;;;2.78;1.70;;;;;;;;;;6237001;23;20000;-76
2021/11/16 00:25:07;;;;;;;1.90;1.50;;;;;;;;;;6238829;23;20011;-75
2021/11/16 00:27:32;;;;;;;3.33;1.75;;;;;;;;;;6236858;23;20004;-75
2021/11/16 00:29:58;;;;;;;6.05;2.10;;;;;;;;;;6239564;23;20000;-75
2021/11/16 00:32:24;;;;;;;3.08;1.75;;;;;;;;;;6239895;23;20000;-74
2021/11/16 00:34:51;;;;;;;5.05;1.70;;;;;;;;;;6238274;23;20079;-77
2021/11/16 00:37:25;;;;;;;7.05;2.08;;;;;;;;;;6239357;23;20031;-76
2021/11/16 00:39:51;;;;;;;3.05;1.70;;;;;;;;;;6240010;23;20489;-76
2021/11/16 00:42:18;;;;;;;4.22;1.88;;;;;;;;;;6212728;23;20004;-72
2021/11/16 00:44:44;;;;;;;7.00;1.83;;;;;;;;;;6237867;23;20110;-75
2021/11/16 00:47:10;;;;;;;3.75;1.58;;;;;;;;;;6240044;23;20168;-74
2021/11/16 00:49:36;;;;;;;2.90;1.77;;;;;;;;;;6239610;23;20012;-76
2021/11/16 00:52:03;;;;;;;2.50;1.67;;;;;;;;;;6239740;23;20075;-76
2021/11/16 00:54:29;;;;;;;3.10;2.00;;;;;;;;;;6237771;23;20227;-76
2021/11/16 00:56:55;;;;;;;3.60;1.73;;;;;;;;;;6239760;23;19996;-77
2021/11/16 00:59:21;;;;;;;4.10;1.80;;;;;;;;;;6239360;23;20019;-72
2021/11/16 01:01:48;;;;;;;3.80;2.05;;;;;;;;;;6238857;23;20050;-76
2021/11/16 01:04:15;;;;;;;2.92;1.77;;;;;;;;;;6239132;23;20008;-73
2021/11/16 01:06:42;;;;;;;3.95;2.17;;;;;;;;;;6239310;23;20000;-76
2021/11/16 01:09:08;;;;;;;4.47;1.70;;;;;;;;;;6238527;23;20010;-72
2021/11/16 01:11:34;;;;;;;2.47;1.70;;;;;;;;;;6239294;23;19996;-77
2021/11/16 01:14:01;;;;;;;5.10;1.80;;;;;;;;;;6237437;23;20008;-76
2021/11/16 01:16:27;;;;;;;3.60;2.25;;;;;;;;;;6239397;23;19996;-76
2021/11/16 01:18:53;;;;;;;3.95;2.13;;;;;;;;;;6238183;23;20012;-72
2021/11/16 01:21:19;;;;;;;3.97;1.92;;;;;;;;;;6238851;23;20004;-76
2021/11/16 01:23:46;;;;;;;4.25;1.90;;;;;;;;;;6238735;23;20075;-76
2021/11/16 01:26:13;;;;;;;3.40;1.88;;;;;;;;;;6236962;23;20451;-75
2021/11/16 01:28:40;;;;;;;4.20;2.10;;;;;;;;;;6238168;23;20062;-76
2021/11/16 01:31:07;;;;;;;5.43;2.13;;;;;;;;;;6238989;23;20004;-76
2021/11/16 01:36:39;;;;;;;4.03;1.83;;;;;;;;;;6147019;23;20010;-74
2021/11/16 01:39:06;;;;;;;4.07;1.85;;;;;;;;;;6142828;23;20069;-76
2021/11/16 01:41:32;;;;;;;5.03;2.08;;;;;;;;;;6189742;23;20062;-72
2021/11/16 01:44:00;;;;;;;2.42;1.77;;;;;;;;;;6211904;23;20039;-76
2021/11/16 01:46:26;;;;;;;6.80;2.15;;;;;;;;;;6237370;23;20004;-75
2021/11/16 01:48:54;;;;;;;3.58;1.83;;;;;;;;;;6239171;23;20053;-76
2021/11/16 01:51:23;;;;;;;4.13;1.85;;;;;;;;;;6239232;23;19999;-75
2021/11/16 01:53:54;;;;;;;4.07;1.88;;;;;;;;;;6212893;23;20023;-77
2021/11/16 01:56:20;;;;;;;4.88;1.73;;;;;;;;;;6239203;23;20067;-76
2021/11/16 01:58:46;;;;;;;4.65;2.10;;;;;;;;;;6237164;23;20036;-76
2021/11/16 02:01:13;;;;;;;8.07;2.10;;;;;;;;;;6212341;23;20504;-76
2021/11/16 02:03:39;;;;;;;3.47;1.90;;;;;;;;;;6239396;23;20004;-76
2021/11/16 02:06:34;;;;;;;4.47;1.80;;;;;;;;;;6240121;23;20030;-75
2021/11/16 02:09:02;;;;;;;3.38;1.98;;;;;;;;;;6212531;23;20443;-75
2021/11/16 02:11:29;;;;;;;2.83;1.63;;;;;;;;;;6237379;23;20005;-76
2021/11/16 02:13:55;;;;;;;4.55;2.28;;;;;;;;;;6239085;23;20027;-76
2021/11/16 02:16:22;;;;;;;3.30;1.67;;;;;;;;;;6238932;23;20513;-76
2021/11/16 02:18:48;;;;;;;3.22;1.70;;;;;;;;;;6238929;23;20012;-72
2021/11/16 02:21:14;;;;;;;5.03;1.77;;;;;;;;;;6237405;23;20000;-77
2021/11/16 02:23:41;;;;;;;6.35;2.30;;;;;;;;;;6211891;23;20154;-73
2021/11/16 02:26:08;;;;;;;2.60;1.60;;;;;;;;;;6239193;23;20008;-76
2021/11/16 02:28:35;;;;;;;5.38;1.80;;;;;;;;;;6238671;23;19996;-76
2021/11/16 02:31:02;;;;;;;4.05;1.90;;;;;;;;;;6212247;23;20011;-76
2021/11/16 02:33:28;;;;;;;3.65;1.70;;;;;;;;;;6238837;23;19996;-72
2021/11/16 02:35:55;;;;;;;4.55;2.20;;;;;;;;;;6237603;23;20341;-71
2021/11/16 02:38:21;;;;;;;5.43;1.90;;;;;;;;;;6237805;23;20024;-77
2021/11/16 02:40:48;;;;;;;4.38;1.90;;;;;;;;;;6238990;23;20007;-72
2021/11/16 02:43:14;;;;;;;3.30;2.08;;;;;;;;;;6239233;23;20006;-76
2021/11/16 02:45:41;;;;;;;3.60;2.42;;;;;;;;;;6239047;23;20012;-77
2021/11/16 02:48:13;;;;;;;2.90;1.83;;;;;;;;;;6237714;23;20000;-72
2021/11/16 02:50:39;;;;;;;;;;;;;;;;;;6239595;23;20001;-76
2021/11/16 02:53:05;;;;;;;4.95;1.75;;;;;;;;;;6239366;23;19903;-76
2021/11/16 02:55:32;;;;;;;6.28;1.92;;;;;;;;;;6238941;23;20008;-75
2021/11/16 02:57:58;;;;;;;6.55;2.38;;;;;;;;;;6237083;23;20031;-76
2021/11/16 03:00:24;;;;;;;6.32;1.95;;;;;;;;;;6238695;23;20388;-73
2021/11/16 03:02:50;;;;;;;3.80;1.88;;;;;;;;;;6238711;23;20547;-75
2021/11/16 03:05:17;;;;;;;7.00;2.28;;;;;;;;;;6239010;23;20548;-76
2021/11/16 03:07:47;;;;;;;6.35;2.03;;;;;;;;;;6236300;23;20000;-74
2021/11/16 03:10:14;;;;;;;5.82;2.10;;;;;;;;;;6238926;23;20035;-76
2021/11/16 03:12:41;;;;;;;4.45;2.00;;;;;;;;;;6238743;23;20058;-77
2021/11/16 03:15:07;;;;;;;5.10;2.20;;;;;;;;;;6238647;23;20000;-76
2021/11/16 03:17:33;;;;;;;5.43;2.60;;;;;;;;;;6238167;23;20589;-76
2021/11/16 03:20:00;;;;;;;3.88;2.03;;;;;;;;;;6238387;23;20428;-76
2021/11/16 03:22:37;;;;;;;4.25;2.28;;;;;;;;;;6238748;23;20020;-75
2021/11/16 03:25:03;;;;;;;4.43;1.92;;;;;;;;;;6236789;23;20432;-76
2021/11/16 03:27:36;;;;;;;3.45;2.30;;;;;;;;;;6238826;23;20050;-76
2021/11/16 03:30:02;;;;;;;3.50;2.42;;;;;;;;;;6238331;23;20012;-76
2021/11/16 03:32:35;;;;;;;5.82;2.70;;;;;;;;;;6238926;23;20035;-76
2021/11/16 03:35:02;;;;;;;5.63;2.38;;;;;;;;;;6238726;23;20360;-72
2021/11/16 03:37:33;;;;;;;8.82;2.85;;;;;;;;;;6237794;23;20070;-76
2021/11/16 03:39:59;;;;;;;7.90;2.17;;;;;;;;;;6236223;23;20045;-71
2021/11/16 03:42:26;;;;;;;4.05;2.17;;;;;;;;;;6238991;23;19997;-77
2021/11/16 03:44:52;;;;;;;6.78;2.00;;;;;;;;;;6238621;23;20031;-76
2021/11/16 03:47:19;;;;;;;7.60;2.08;;;;;;;;;;6237621;23;20590;-72
2021/11/16 03:49:46;;;;;;;3.05;1.77;;;;;;;;;;6238513;23;20031;-76
2021/11/16 03:52:13;;;;;;;2.30;1.88;;;;;;;;;;6236755;23;20019;-76
2021/11/16 03:54:39;;;;;;;4.38;1.83;;;;;;;;;;6238646;23;20004;-75
2021/11/16 03:57:06;;;;;;;4.40;2.22;;;;;;;;;;6238508;23;20075;-75
2021/11/16 03:59:32;;;;;;;4.05;2.05;;;;;;;;;;6238149;23;20008;-75
2021/11/16 04:01:59;;;;;;;8.57;2.80;;;;;;;;;;6234307;23;20107;-72
2021/11/16 04:04:26;;;;;;;5.22;1.77;;;;;;;;;;6232498;23;20324;-75
2021/11/16 04:06:52;;;;;;;3.15;1.83;;;;;;;;;;6232445;23;20012;-75
2021/11/16 04:09:18;;;;;;;5.90;1.92;;;;;;;;;;6231282;23;20000;-75
2021/11/16 04:11:44;;;;;;;6.25;2.35;;;;;;;;;;6232652;23;20008;-75
2021/11/16 04:14:11;;;;;;;4.32;2.35;;;;;;;;;;6227427;23;20079;-76
2021/11/16 04:16:38;;;;;;;6.72;2.42;;;;;;;;;;6228599;23;20062;-76
2021/11/16 04:19:04;;;;;;;3.10;2.28;;;;;;;;;;6229076;23;20015;-74
2021/11/16 04:21:30;;;;;;;5.82;2.22;;;;;;;;;;6229398;23;20053;-75
2021/11/16 04:23:56;;;;;;;4.28;2.40;;;;;;;;;;6229147;23;20008;-76
2021/11/16 04:26:22;;;;;;;7.47;2.17;;;;;;;;;;6200428;23;20035;-75
2021/11/16 04:28:49;;;;;;;6.75;2.47;;;;;;;;;;6229598;23;20005;-74
2021/11/16 04:31:15;;;;;;;4.13;2.15;;;;;;;;;;6229624;23;20004;-74
2021/11/16 04:33:43;;;;;;;4.25;2.00;;;;;;;;;;6229734;23;20004;-75
2021/11/16 04:36:11;;;;;;;4.13;2.20;;;;;;;;;;6229373;23;20004;-75
2021/11/16 04:38:37;;;;;;;3.78;2.10;;;;;;;;;;6225376;23;20007;-75
2021/11/16 04:41:04;;;;;;;2.45;1.90;;;;;;;;;;6229176;23;20114;-75
2021/11/16 04:43:32;;;;;;;5.10;2.10;;;;;;;;;;6229204;23;20004;-73
2021/11/16 04:46:09;;;;;;;5.00;2.10;;;;;;;;;;6228731;23;20004;-75
2021/11/16 05:04:38;;;;;;;3.13;1.95;;;;;;;;;;6230833;23;20042;-75
2021/11/16 05:07:16;;;;;;;2.72;1.70;;;;;;;;;;6229660;23;20000;-72
2021/11/16 05:09:50;;;;;;;5.15;1.90;;;;;;;;;;6230289;23;20004;-75
2021/11/16 05:12:17;;;;;;;4.05;1.92;;;;;;;;;;6203378;23;20040;-74
2021/11/16 05:14:44;;;;;;;2.95;1.60;;;;;;;;;;6230710;23;20011;-72
2021/11/16 05:17:11;;;;;;;2.50;1.85;;;;;;;;;;6229190;23;20015;-75
2021/11/16 05:19:37;;;;;;;2.20;1.55;;;;;;;;;;6230346;23;20074;-75
2021/11/16 05:22:03;;;;;;;3.33;1.70;;;;;;;;;;6231055;23;20011;-74
2021/11/16 05:24:29;;;;;;;6.15;1.58;;;;;;;;;;6230550;23;20106;-76
2021/11/16 05:26:55;;;;;;;4.13;1.63;;;;;;;;;;6227537;23;20006;-76
2021/11/16 05:29:22;;;;;;;2.40;1.23;;;;;;;;;;6229578;23;20668;-73
2021/11/16 05:31:48;;;;;;;5.38;1.63;;;;;;;;;;6229562;23;20536;-76
2021/11/16 05:34:14;;;;;;;3.90;1.67;;;;;;;;;;6230362;23;20001;-74
2021/11/16 05:36:40;;;;;;;4.90;2.72;;;;;;;;;;6230378;23;20058;-73
2021/11/16 05:39:07;;;;;;;4.15;1.92;;;;;;;;;;6228392;23;20226;-72
2021/11/16 05:41:33;;;;;;;4.25;2.03;;;;;;;;;;6228554;23;20018;-73
2021/11/16 05:43:59;;;;;;;3.50;1.80;;;;;;;;;;6231156;23;20567;-74
2021/11/16 05:46:26;;;;;;;3.53;1.90;;;;;;;;;;6231208;23;20000;-72
2021/11/16 05:48:53;;;;;;;5.03;1.70;;;;;;;;;;6203023;23;20118;-72
2021/11/16 05:51:20;;;;;;;3.92;1.63;;;;;;;;;;6229787;23;20004;-71
2021/11/16 05:53:52;;;;;;;2.15;1.42;;;;;;;;;;6230543;23;20097;-71
2021/11/16 05:56:23;;;;;;;1.95;1.45;;;;;;;;;;6228859;23;20004;-74
2021/11/16 05:58:52;;;;;;;3.13;1.50;;;;;;;;;;6229159;23;20091;-72
2021/11/16 06:01:21;;;;;;;4.53;1.60;;;;;;;;;;6227192;23;20000;-73
2021/11/16 06:03:51;;;;;;;1.40;1.27;;;;;;;;;;6229535;23;20340;-72
2021/11/16 06:06:21;;;;;;;5.00;1.42;;;;;;;;;;6229086;23;20004;-74
2021/11/16 06:08:48;;;;;;;6.35;2.28;;;;;;;;;;6226773;23;20081;-73
2021/11/16 06:11:16;;;;;;;3.03;1.67;;;;;;;;;;6230127;23;20003;-71
2021/11/16 06:13:42;;;;;;;3.95;1.90;;;;;;;;;;6230234;23;20035;-73
2021/11/16 06:16:08;;;;;;;5.75;1.92;;;;;;;;;;6230897;23;20770;-74
2021/11/16 06:18:34;;;;;;;3.22;1.70;;;;;;;;;;6230688;23;20477;-73
2021/11/16 06:21:00;;;;;;;4.38;1.58;;;;;;;;;;6229664;23;20008;-73
2021/11/16 06:23:26;;;;;;;3.63;2.13;;;;;;;;;;6228256;23;20027;-71
2021/11/16 06:25:53;;;;;;;5.07;2.00;;;;;;;;;;6228904;23;20008;-72
2021/11/16 06:28:19;;;;;;;3.03;1.73;;;;;;;;;;6229475;23;20004;-77
2021/11/16 06:30:45;;;;;;;4.38;1.85;;;;;;;;;;6229911;23;20000;-74
2021/11/16 06:33:11;;;;;;;3.67;2.08;;;;;;;;;;6228997;23;20004;-74
2021/11/16 06:35:37;;;;;;;4.18;2.28;;;;;;;;;;6230940;23;20409;-71
2021/11/16 06:38:03;;;;;;;2.88;1.77;;;;;;;;;;6228969;23;20008;-74
2021/11/16 06:40:30;;;;;;;5.63;1.90;;;;;;;;;;6228488;23;20091;-73
2021/11/16 06:42:56;;;;;;;4.65;1.90;;;;;;;;;;6229671;23;20000;-74
2021/11/16 06:45:22;;;;;;;4.05;1.95;;;;;;;;;;6230214;23;20004;-74
2021/11/16 06:47:48;;;;;;;5.65;2.20;;;;;;;;;;6230536;23;20603;-73
2021/11/16 06:50:15;;;;;;;4.05;2.38;;;;;;;;;;6229637;23;20004;-72
2021/11/16 06:52:41;;;;;;;2.83;2.00;;;;;;;;;;6230135;23;20000;-71
2021/11/16 06:55:09;;;;;;;7.38;2.03;;;;;;;;;;6228632;23;20000;-71
2021/11/16 06:57:35;;;;;;;3.13;1.73;;;;;;;;;;6230386;23;20267;-74
2021/11/16 07:00:07;;;;;;;3.05;1.98;;;;;;;;;;6229649;23;20841;-75
2021/11/16 07:02:33;;;;;;;3.03;1.60;;;;;;;;;;6225756;23;20467;-72
2021/11/16 07:04:59;;;;;;;2.92;2.00;;;;;;;;;;6230051;23;20038;-72
2021/11/16 07:07:26;;;;;;;2.78;1.60;;;;;;;;;;6229151;23;20541;-74
2021/11/16 07:09:53;;;;;;;4.82;3.40;;;;;;;;;;6227446;23;20015;-73
2021/11/16 07:12:25;;;;;;;4.18;2.90;;;;;;;;;;6230414;23;20007;-75
2021/11/16 07:14:51;;;;;;;5.65;2.97;;;;;;;;;;6229469;23;20441;-72
2021/11/16 07:17:18;;;;;;;9.05;4.30;;;;;;;;;;6229642;23;20016;-75
2021/11/16 07:19:47;;;;;;;6.22;3.55;;;;;;;;;;6228641;23;20407;-71
2021/11/16 07:22:15;;;;;;;6.05;3.28;;;;;;;;;;6229860;23;20492;-75
2021/11/16 07:24:46;;;;;;;5.82;3.47;;;;;;;;;;6230037;23;20004;-72
2021/11/16 07:27:12;;;;;;;4.68;3.08;;;;;;;;;;6229904;23;20519;-73
2021/11/16 07:29:43;;;;;;;6.85;2.65;;;;;;;;;;6201080;23;20033;-73
2021/11/16 07:32:29;;;;;;;5.60;2.60;;;;;;;;;;6230145;23;20004;-71
2021/11/16 07:34:59;;;;;;;4.60;2.35;;;;;;;;;;6229995;23;20000;-71
2021/11/16 07:37:26;;;;;;;5.25;2.30;;;;;;;;;;6228083;23;20004;-74
2021/11/16 07:40:07;;;;;;;4.53;2.65;;;;;;;;;;6227008;23;20027;-72
2021/11/16 07:42:35;;;;;;;3.58;2.67;;;;;;;;;;6229331;23;20000;-71
2021/11/16 07:45:06;;;;;;;9.10;5.15;;;;;;;;;;6229529;23;20039;-72
2021/11/16 07:47:51;;;;;;;9.73;5.57;;;;;;;;;;6229414;23;20008;-72
2021/11/16 07:50:37;;;;;;;9.73;5.47;;;;;;;;;;6229396;23;20004;-72
2021/11/16 07:53:15;;;;;;;9.98;5.97;;;;;;;;;;6227609;23;20770;-71
2021/11/16 07:55:42;;;;;;;12.07;6.10;;;;;;;;;;6229588;23;20004;-75
2021/11/16 07:58:10;;;;;;;13.07;5.78;;;;;;;;;;6202927;23;20004;-75
2021/11/16 08:00:38;;;;;;;8.45;5.30;;;;;;;;;;6229155;23;20394;-74
2021/11/16 08:03:16;;;;;;;8.35;5.38;;;;;;;;;;6227068;23;20004;-75
2021/11/16 08:11:17;;;;;;;9.95;4.72;;;;;;;;;;6240468;23;20016;-72
2021/11/16 08:13:58;;;;;;;8.57;4.15;;;;;;;;;;6227448;23;20409;-74
2021/11/16 08:16:24;;;;;;;5.35;3.47;;;;;;;;;;6229566;23;20015;-74
2021/11/16 08:18:54;;;;;;;6.80;3.60;;;;;;;;;;6229092;23;20016;-74
2021/11/16 08:21:20;;;;;;;6.03;3.25;;;;;;;;;;6229953;23;20019;-71
2021/11/16 08:24:07;;;;;;;10.13;3.97;;;;;;;;;;6229123;23;20003;-74
2021/11/16 08:26:38;;;;;;;9.55;3.92;;;;;;;;;;6228902;23;20401;-75
2021/11/16 08:29:05;;;;;;;9.60;4.13;;;;;;;;;;6230312;23;20008;-72
2021/11/16 08:31:36;;;;;;;5.53;3.63;;;;;;;;;;6230221;23;20004;-73
2021/11/16 08:34:02;;;;;;;14.80;3.78;;;;;;;;;;6231540;23;20166;-78
2021/11/16 08:36:31;;;;;;;6.88;4.20;;;;;;;;;;6231066;23;20112;-75
2021/11/16 08:38:58;;;;;;;6.72;4.55;;;;;;;;;;6229861;23;20095;-76
2021/11/16 08:41:32;;;;;;;5.57;3.70;;;;;;;;;;6231195;23;20092;-73
2021/11/16 08:44:09;;;;;;;6.47;3.63;;;;;;;;;;6231314;23;20004;-72
2021/11/16 08:46:35;;;;;;;6.97;3.83;;;;;;;;;;6231881;23;20484;-71
2021/11/16 08:49:02;;;;;;;5.85;3.42;;;;;;;;;;6230365;23;20011;-73
2021/11/16 08:51:38;;;;;;;6.13;3.42;;;;;;;;;;6228952;23;20027;-73
2021/11/16 08:54:04;;;;;;;5.70;2.80;;;;;;;;;;6204182;23;20004;-73
2021/11/16 08:56:36;;;;;;;5.55;2.20;;;;;;;;;;6203908;23;20000;-74
2021/11/16 08:59:02;;;;;;;;;;;;;;;;;;6231785;23;20004;-74
2021/11/16 09:01:28;;;;;;;3.80;2.38;;;;;;;;;;6228595;23;19907;-71
2021/11/16 09:03:54;;;;;;;4.70;2.35;;;;;;;;;;6229072;23;20006;-71
2021/11/16 09:06:21;;;;;;;3.58;1.92;;;;;;;;;;6231407;23;20004;-74
2021/11/16 09:09:00;;;;;;;5.18;2.80;;;;;;;;;;6203053;23;20004;-76
2021/11/16 09:11:26;;;;;;;4.30;2.58;;;;;;;;;;6231326;23;20008;-75
2021/11/16 09:13:52;;;;;;;6.60;3.60;;;;;;;;;;6230380;23;20091;-73
2021/11/16 09:16:20;;;;;;;5.60;3.60;;;;;;;;;;6230465;23;20238;-74
2021/11/16 09:18:49;;;;;;;10.02;4.25;;;;;;;;;;6201672;23;20024;-75
2021/11/16 09:21:18;;;;;;;5.90;3.70;;;;;;;;;;6231265;23;20027;-73
2021/11/16 09:23:50;;;;;;;7.53;4.35;;;;;;;;;;6231031;23;20355;-73
2021/11/16 09:28:58;;;;;;;7.75;4.55;;;;;;;;;;6239778;23;20008;-73
2021/11/16 09:31:28;;;;;;;5.68;3.58;;;;;;;;;;6204144;23;20004;-71
2021/11/16 09:33:55;;;;;;;10.40;3.97;;;;;;;;;;6230942;23;20016;-75
2021/11/16 09:36:40;;;;;;;4.72;3.58;;;;;;;;;;6230557;23;20329;-75
2021/11/16 09:39:08;;;;;;;6.38;3.45;;;;;;;;;;6226854;23;20004;-73
2021/11/16 09:41:36;;;;;;;4.60;3.28;;;;;;;;;;6203406;23;20091;-71
2021/11/16 09:44:05;;;;;;;6.90;3.50;;;;;;;;;;6229604;23;20019;-72
2021/11/16 09:46:33;;;;;;;4.57;3.20;;;;;;;;;;6227235;23;20403;-71
2021/11/16 09:49:01;;;;;;;5.90;3.35;;;;;;;;;;6229381;23;20539;-73
2021/11/16 09:51:28;;;;;;;4.22;2.95;;;;;;;;;;6229217;23;20015;-71
2021/11/16 09:54:05;;;;;;;8.07;4.10;;;;;;;;;;6227911;23;20004;-71
2021/11/16 09:56:32;;;;;;;3.95;3.03;;;;;;;;;;6229160;23;20545;-71
2021/11/16 09:58:58;;;;;;;6.22;3.30;;;;;;;;;;6229592;23;20000;-73
2021/11/16 10:01:27;;;;;;;5.30;3.15;;;;;;;;;;6225443;23;20825;-70
2021/11/16 10:04:18;;;;;;;5.07;3.20;;;;;;;;;;6229938;23;20012;-70
2021/11/16 10:06:45;;;;;;;6.50;3.33;;;;;;;;;;6215740;23;20008;-73
2021/11/16 10:09:11;;;;;;;4.68;2.90;;;;;;;;;;6229026;23;20007;-71
2021/11/16 10:11:42;;;;;;;6.63;2.80;;;;;;;;;;6229452;23;20011;-70
2021/11/16 10:14:14;;;;;;;5.50;3.28;;;;;;;;;;6228045;23;20035;-71
2021/11/16 10:16:41;;;;;;;7.60;3.30;;;;;;;;;;6230210;23;20031;-72
2021/11/16 10:19:07;;;;;;;5.15;2.65;;;;;;;;;;6229600;23;20517;-75
2021/11/16 10:21:34;;;;;;;4.53;2.25;;;;;;;;;;6228978;23;20010;-73
2021/11/16 10:24:01;;;;;;;4.47;3.05;;;;;;;;;;6229655;23;20063;-71
2021/11/16 10:26:32;;;;;;;3.78;2.58;;;;;;;;;;6227126;23;20055;-71
2021/11/16 10:28:58;;;;;;;5.55;2.25;;;;;;;;;;6231073;23;20004;-71
2021/11/16 10:31:29;;;;;;;5.50;2.33;;;;;;;;;;6228855;23;20071;-71
2021/11/16 10:33:56;;;;;;;5.07;2.28;;;;;;;;;;6227914;23;20367;-71
2021/11/16 10:36:23;;;;;;;5.97;2.25;;;;;;;;;;6229480;23;20008;-73
2021/11/16 10:38:52;;;;;;;3.33;2.08;;;;;;;;;;6229252;23;20008;-73
2021/11/16 10:41:21;;;;;;;6.47;2.30;;;;;;;;;;6229428;23;20061;-73
2021/11/16 10:43:52;;;;;;;5.15;2.63;;;;;;;;;;6202637;23;20639;-72
2021/11/16 10:46:19;;;;;;;4.80;2.58;;;;;;;;;;6227587;23;20000;-74
2021/11/16 10:48:46;;;;;;;3.70;2.45;;;;;;;;;;6228844;23;20000;-73
2021/11/16 10:51:13;;;;;;;7.47;2.25;;;;;;;;;;6229476;23;20004;-73
2021/11/16 10:53:46;;;;;;;5.65;2.45;;;;;;;;;;6228819;23;20000;-74
2021/11/16 10:56:15;;;;;;;5.60;2.10;;;;;;;;;;6228760;23;20421;-72
2021/11/16 10:58:42;;;;;;;8.73;2.28;;;;;;;;;;6228001;23;20015;-73
2021/11/16 11:01:10;;;;;;;6.20;2.22;;;;;;;;;;6224131;23;20010;-72
2021/11/16 11:03:45;;;;;;;4.45;2.65;;;;;;;;;;6227850;23;20019;-73
2021/11/16 11:06:14;;;;;;;3.03;1.90;;;;;;;;;;6200422;23;20012;-73
2021/11/16 11:08:41;;;;;;;2.75;2.00;;;;;;;;;;6223986;23;20003;-73
2021/11/16 11:11:14;;;;;;;4.05;2.25;;;;;;;;;;6227373;23;20004;-73
2021/11/16 11:13:40;;;;;;;7.57;2.17;;;;;;;;;;6227539;23;20076;-72
2021/11/16 11:16:11;;;;;;;5.85;2.05;;;;;;;;;;6227006;23;20007;-72
2021/11/16 11:18:39;;;;;;;4.90;2.30;;;;;;;;;;6227796;23;20035;-73
2021/11/16 11:21:07;;;;;;;3.45;2.30;;;;;;;;;;6226017;23;20578;-73
2021/11/16 11:23:38;;;;;;;4.40;2.50;;;;;;;;;;6227359;23;20464;-73
2021/11/16 11:26:44;;;;;;;8.02;3.15;;;;;;;;;;6227917;23;20000;-74
2021/11/16 11:29:15;;;;;;;9.77;4.15;;;;;;;;;;6225474;23;20000;-73
2021/11/16 11:31:43;;;;;;;9.10;4.40;;;;;;;;;;6230925;23;20004;-72
2021/11/16 11:34:10;;;;;;;7.30;3.22;;;;;;;;;;6231946;23;20325;-72
2021/11/16 11:36:36;;;;;;;7.90;3.00;;;;;;;;;;6231129;23;20008;-73
2021/11/16 11:39:14;;;;;;;6.18;3.10;;;;;;;;;;6230044;23;20107;-73
2021/11/16 11:41:47;;;;;;;6.88;3.40;;;;;;;;;;6229762;23;20058;-72
2021/11/16 11:44:16;;;;;;;6.65;3.38;;;;;;;;;;6231510;23;20004;-71
2021/11/16 11:46:53;;;;;;;7.25;4.47;;;;;;;;;;6229849;23;20031;-73
2021/11/16 11:49:19;;;;;;;6.93;3.33;;;;;;;;;;6229296;23;20099;-71
2021/11/16 11:51:46;;;;;;;7.22;3.88;;;;;;;;;;6229208;23;20121;-71
2021/11/16 11:54:12;;;;;;;11.32;3.65;;;;;;;;;;6227913;23;20012;-72
2021/11/16 11:56:39;;;;;;;9.68;3.63;;;;;;;;;;6226509;23;20098;-72
2021/11/16 11:59:05;;;;;;;6.80;4.13;;;;;;;;;;6227732;23;20721;-75
2021/11/16 12:01:32;;;;;;;6.38;3.35;;;;;;;;;;6230471;23;20011;-74
2021/11/16 12:03:59;;;;;;;7.38;3.25;;;;;;;;;;6230713;23;20004;-72
2021/11/16 12:06:26;;;;;;;12.18;3.50;;;;;;;;;;6226616;23;20000;-71
2021/11/16 12:08:56;;;;;;;8.73;3.45;;;;;;;;;;6229381;23;20000;-76
2021/11/16 12:11:22;;;;;;;8.13;3.10;;;;;;;;;;6229743;23;20011;-73
2021/11/16 12:13:49;;;;;;;11.80;4.13;;;;;;;;;;6230564;23;20026;-73
2021/11/16 12:16:27;;;;;;;13.07;3.25;;;;;;;;;;6231222;23;20416;-72
2021/11/16 12:19:03;;;;;;;12.43;3.42;;;;;;;;;;6230187;23;20024;-72
2021/11/16 12:21:29;;;;;;;11.30;2.90;;;;;;;;;;6228225;23;20008;-73
2021/11/16 12:24:00;;;;;;;7.97;3.15;;;;;;;;;;6230078;23;20000;-71
2021/11/16 12:26:27;;;;;;;9.43;3.58;;;;;;;;;;6230218;23;20605;-72
2021/11/16 12:28:53;;;;;;;10.18;5.03;;;;;;;;;;6229387;23;20099;-72
2021/11/16 12:31:24;;;;;;;10.23;4.35;;;;;;;;;;6230611;23;20008;-71
2021/11/16 12:33:51;;;;;;;11.35;4.70;;;;;;;;;;6201716;23;20407;-70
2021/11/16 12:36:18;;;;;;;9.43;3.30;;;;;;;;;;6229842;23;20027;-70
2021/11/16 12:38:49;;;;;;;7.75;3.17;;;;;;;;;;6230107;23;20035;-72
2021/11/16 12:41:27;;;;;;;7.18;3.08;;;;;;;;;;6227842;23;20004;-72
2021/11/16 12:43:59;;;;;;;17.70;2.88;;;;;;;;;;6203153;23;20000;-74
2021/11/16 12:46:32;;;;;;;11.52;3.08;;;;;;;;;;6229243;23;20004;-72
2021/11/16 12:48:59;;;;;;;10.88;2.17;;;;;;;;;;6229671;23;20008;-72
2021/11/16 12:51:30;;;;;;;9.35;2.53;;;;;;;;;;6228069;23;20429;-75
2021/11/16 12:53:56;;;;;;;13.90;7.63;;;;;;;;;;6229518;23;20616;-72
2021/11/16 12:56:23;;;;;;;14.82;11.02;;;;;;;;;;6229695;23;20003;-70
2021/11/16 12:58:51;;;;;;;11.85;3.72;;;;;;;;;;6228725;23;20451;-70
2021/11/16 13:01:36;;;;;;;11.27;4.95;;;;;;;;;;6230284;23;20032;-71
2021/11/16 13:04:06;;;;;;;16.83;3.85;;;;;;;;;;6229695;23;20020;-71
2021/11/16 13:06:32;;;;;;;14.13;4.10;;;;;;;;;;6227668;23;20023;-71
2021/11/16 13:08:59;;;;;;;13.57;5.38;;;;;;;;;;6229319;23;20278;-71
2021/11/16 13:11:39;;;;;;;45.42;30.83;;;;;;;;;;6229869;23;20004;-73
2021/11/16 13:14:06;;;;;;;26.27;15.55;;;;;;;;;;6230012;23;20032;-72
2021/11/16 13:16:32;;;;;;;19.98;7.72;;;;;;;;;;6229858;23;20082;-72
2021/11/16 13:19:00;;;;;;;15.63;4.95;;;;;;;;;;6228257;23;20011;-73
2021/11/16 13:21:27;;;;;;;13.27;2.42;;;;;;;;;;6230492;23;20031;-74
2021/11/16 13:23:58;;;;;;;8.40;2.40;;;;;;;;;;6229675;23;20010;-72
2021/11/16 13:26:29;;;;;;;20.33;5.40;;;;;;;;;;6229551;23;20363;-72
2021/11/16 13:31:31;;;;;;;16.45;4.32;;;;;;;;;;6240757;23;20408;-72
2021/11/16 13:34:11;;;;;;;11.45;3.13;;;;;;;;;;6227953;23;20305;-75
2021/11/16 13:36:42;;;;;;;14.45;3.00;;;;;;;;;;6229945;23;20089;-73
2021/11/16 13:39:08;;;;;;;23.35;8.10;;;;;;;;;;6228309;23;20008;-73
2021/11/16 13:41:42;;;;;;;12.63;3.15;;;;;;;;;;6228024;23;20004;-72
2021/11/16 13:44:17;;;;;;;9.07;3.03;;;;;;;;;;6230115;23;20004;-73
2021/11/16 13:46:44;;;;;;;10.68;2.47;;;;;;;;;;6229228;23;20089;-74
2021/11/16 13:49:11;;;;;;;21.92;3.42;;;;;;;;;;6229919;23;20689;-74
2021/11/16 13:51:38;;;;;;;9.77;2.90;;;;;;;;;;6229764;23;20004;-73
2021/11/16 13:54:05;;;;;;;9.73;2.10;;;;;;;;;;6228064;23;20015;-73
2021/11/16 13:56:32;;;;;;;21.20;5.15;;;;;;;;;;6229093;23;20000;-73
2021/11/16 13:58:58;;;;;;;18.13;3.15;;;;;;;;;;6229084;23;20088;-73
2021/11/16 14:01:32;;;;;;;13.48;2.47;;;;;;;;;;6229631;23;20009;-73
2021/11/16 14:04:11;;;;;;;6.32;1.90;;;;;;;;;;6228854;23;20012;-70
2021/11/16 14:06:37;;;;;;;9.95;1.90;;;;;;;;;;6227152;23;20000;-72
2021/11/16 14:09:13;;;;;;;12.35;1.75;;;;;;;;;;6225011;23;20508;-70
2021/11/16 14:11:54;;;;;;;11.63;2.13;;;;;;;;;;6227736;23;20487;-71
2021/11/16 14:14:21;;;;;;;15.65;2.80;;;;;;;;;;6228448;23;20004;-70
2021/11/16 14:16:48;;;;;;;21.48;3.47;;;;;;;;;;6228526;23;20083;-73
2021/11/16 14:19:16;;;;;;;12.98;3.17;;;;;;;;;;6229005;23;20077;-70
2021/11/16 14:21:44;;;;;;;15.57;3.85;;;;;;;;;;6228019;23;20404;-70
2021/11/16 14:24:11;;;;;;;12.82;2.67;;;;;;;;;;6228133;23;20012;-70
2021/11/16 14:26:37;;;;;;;8.80;2.58;;;;;;;;;;6229448;23;20004;-74
2021/11/16 14:29:05;;;;;;;7.10;2.15;;;;;;;;;;6229799;23;20008;-77
2021/11/16 14:31:33;;;;;;;7.55;1.70;;;;;;;;;;6226982;23;20653;-70
2021/11/16 14:34:02;;;;;;;5.75;1.60;;;;;;;;;;6202519;23;20043;-70
2021/11/16 14:36:33;;;;;;;4.35;1.58;;;;;;;;;;6229236;23;20010;-70
2021/11/16 14:39:07;;;;;;;5.07;1.73;;;;;;;;;;6228339;23;20001;-70
2021/11/16 14:41:33;;;;;;;6.18;1.65;;;;;;;;;;6227277;23;20019;-70
2021/11/16 14:44:09;;;;;;;5.22;1.48;;;;;;;;;;6229117;23;20000;-71
2021/11/16 14:46:37;;;;;;;4.40;1.58;;;;;;;;;;6228271;23;20083;-70
2021/11/16 14:49:03;;;;;;;2.97;1.30;;;;;;;;;;6226775;23;20007;-70
2021/11/16 14:51:35;;;;;;;4.88;2.08;;;;;;;;;;6228755;23;20000;-70
2021/11/16 14:54:07;;;;;;;10.57;2.80;;;;;;;;;;6228942;23;20011;-71
2021/11/16 14:56:34;;;;;;;8.18;3.25;;;;;;;;;;6228809;23;20289;-70
2021/11/16 14:59:05;;;;;;;6.55;2.70;;;;;;;;;;6228181;23;20012;-70
2021/11/16 15:01:33;;;;;;;11.95;2.03;;;;;;;;;;6202368;23;20081;-70
2021/11/16 15:04:02;;;;;;;6.25;2.60;;;;;;;;;;6227175;23;20441;-70
2021/11/16 15:06:29;;;;;;;3.33;1.73;;;;;;;;;;6226132;23;20028;-70
2021/11/16 15:09:09;;;;;;;9.65;2.25;;;;;;;;;;6227673;23;20124;-70
2021/11/16 15:11:36;;;;;;;5.82;1.92;;;;;;;;;;6228991;23;20142;-70
2021/11/16 15:14:10;;;;;;;5.00;1.60;;;;;;;;;;6228788;23;20026;-70
2021/11/16 15:16:37;;;;;;;3.67;1.73;;;;;;;;;;6228604;23;20622;-70
2021/11/16 15:19:21;;;;;;;6.63;2.13;;;;;;;;;;6227595;23;20043;-70